TimeEDT,TemperatureF,Dew PointF,Humidity,Sea Level PressureIn,VisibilityMPH,Wind Direction,Wind SpeedMPH,Gust SpeedMPH,PrecipitationIn,Events,Conditions,WindDirDegrees,DateUTC
12:54 AM,60.1,53.1,78,30.14,10.0,SSW,9.2,-,N/A,,Clear,200,2012-09-26 04:54:00
1:54 AM,61.0,54.0,78,30.14,10.0,SSW,12.7,-,N/A,,Scattered Clouds,210,2012-09-26 05:54:00
2:54 AM,60.1,55.0,83,30.13,10.0,SSW,11.5,-,N/A,,Scattered Clouds,200,2012-09-26 06:54:00
3:54 AM,60.1,55.0,83,30.12,10.0,SSW,10.4,-,N/A,,Scattered Clouds,200,2012-09-26 07:54:00
4:54 AM,60.1,55.0,83,30.12,10.0,South,9.2,-,N/A,,Scattered Clouds,180,2012-09-26 08:54:00
5:54 AM,62.1,55.9,80,30.11,10.0,SSW,10.4,-,N/A,,Overcast,200,2012-09-26 09:54:00
6:54 AM,62.1,55.9,80,30.12,10.0,South,9.2,-,N/A,,Overcast,190,2012-09-26 10:54:00
7:54 AM,62.1,57.0,84,30.11,10.0,South,9.2,-,0.00,,Overcast,190,2012-09-26 11:54:00
8:54 AM,64.0,57.9,80,30.11,10.0,SSW,9.2,-,0.00,,Mostly Cloudy,200,2012-09-26 12:54:00
9:54 AM,68.0,59.0,73,30.09,10.0,South,13.8,-,N/A,,Overcast,190,2012-09-26 13:54:00
10:54 AM,70.0,57.9,65,30.08,10.0,SSW,16.1,-,N/A,,Overcast,210,2012-09-26 14:54:00
11:54 AM,73.0,60.1,64,30.06,10.0,SSW,15.0,24.2,N/A,,Overcast,210,2012-09-26 15:54:00
12:54 PM,70.0,60.1,71,30.04,10.0,SSW,13.8,-,N/A,,Overcast,200,2012-09-26 16:54:00
1:54 PM,72.0,61.0,68,30.03,10.0,SSW,16.1,26.5,N/A,,Overcast,210,2012-09-26 17:54:00
2:54 PM,72.0,61.0,68,30.01,10.0,SSW,13.8,23.0,N/A,,Mostly Cloudy,200,2012-09-26 18:54:00
3:54 PM,71.1,61.0,70,30.01,10.0,SSW,13.8,-,0.00,,Mostly Cloudy,210,2012-09-26 19:54:00
4:54 PM,71.1,61.0,70,30.00,10.0,SSW,13.8,-,N/A,,Overcast,210,2012-09-26 20:54:00
5:54 PM,70.0,61.0,73,30.01,10.0,SW,13.8,-,N/A,,Overcast,220,2012-09-26 21:54:00
6:54 PM,70.0,61.0,73,30.01,10.0,SW,10.4,-,N/A,,Mostly Cloudy,220,2012-09-26 22:54:00
7:54 PM,70.0,61.0,73,30.02,10.0,SW,17.3,-,N/A,,Overcast,230,2012-09-26 23:54:00
8:54 PM,69.1,61.0,75,30.02,10.0,SW,13.8,-,N/A,,Overcast,230,2012-09-27 00:54:00
9:54 PM,68.0,62.1,81,30.02,10.0,SW,9.2,-,N/A,,Mostly Cloudy,230,2012-09-27 01:54:00
10:54 PM,68.0,62.1,81,30.02,10.0,SW,9.2,-,N/A,,Overcast,230,2012-09-27 02:54:00
11:54 PM,66.9,62.1,84,30.01,10.0,SW,9.2,-,N/A,,Overcast,230,2012-09-27 03:54:00